createdAt,value
2022-09-01T00:00:02.947Z,15.75
2022-09-01T00:02:31.396Z,15.27
2022-09-01T00:04:59.422Z,17.15
2022-09-01T00:07:30.078Z,14.90
2022-09-01T00:09:58.499Z,15.70
2022-09-01T00:12:26.388Z,16.33
2022-09-01T00:14:54.858Z,14.10
2022-09-01T00:17:24.055Z,18.10
2022-09-01T00:19:52.124Z,16.23
2022-09-01T00:22:19.997Z,19.40
2022-09-01T00:24:47.854Z,17.55
2022-09-01T00:27:15.802Z,17.60
2022-09-01T00:29:44.102Z,18.77
2022-09-01T00:32:12.546Z,18.00
2022-09-01T00:34:41.859Z,19.30
2022-09-01T00:37:09.811Z,21.27
2022-09-01T00:39:37.638Z,20.13
2022-09-01T00:42:06.069Z,20.30
2022-09-01T00:44:34.290Z,20.13
2022-09-01T00:47:02.330Z,21.90
2022-09-01T00:49:34.999Z,19.77
2022-09-01T00:52:08.348Z,19.98
2022-09-01T00:54:44.497Z,22.75
2022-09-01T00:57:13.875Z,22.25
2022-09-01T00:59:48.204Z,23.52
2022-09-01T01:02:16.817Z,27.63
2022-09-01T01:04:46.248Z,24.05
2022-09-01T01:07:17.026Z,22.30
2022-09-01T01:09:47.050Z,23.55
2022-09-01T01:12:18.504Z,25.67
2022-09-01T01:14:47.966Z,23.50
2022-09-01T01:17:15.822Z,23.10
2022-09-01T01:20:04.402Z,23.85
2022-09-01T01:23:00.311Z,27.88
2022-09-01T01:25:30.388Z,23.77
2022-09-01T01:28:06.876Z,29.65
2022-09-01T01:30:35.455Z,27.88
2022-09-01T01:33:03.900Z,28.33
2022-09-01T01:35:33.720Z,24.30
2022-09-01T01:38:03.137Z,28.73
2022-09-01T01:40:32.328Z,24.50
2022-09-01T01:43:01.962Z,25.35
2022-09-01T01:45:30.788Z,24.42
2022-09-01T01:47:59.007Z,26.42
2022-09-01T01:50:35.644Z,24.45
2022-09-01T01:53:11.128Z,23.48
2022-09-01T01:55:41.730Z,23.50
2022-09-01T01:58:12.014Z,25.58
2022-09-01T02:00:42.845Z,26.63
2022-09-01T02:03:12.725Z,23.13
2022-09-01T02:05:41.251Z,24.15
2022-09-01T02:08:10.950Z,23.98
2022-09-01T02:10:44.042Z,24.73
2022-09-01T02:13:16.413Z,24.50
2022-09-01T02:15:47.906Z,24.10
2022-09-01T02:18:19.210Z,23.73
2022-09-01T02:20:49.346Z,23.38
2022-09-01T02:23:20.194Z,25.70
2022-09-01T02:26:14.457Z,24.40
2022-09-01T02:28:42.505Z,24.45
2022-09-01T02:31:12.024Z,22.90
2022-09-01T02:33:41.104Z,24.48
2022-09-01T02:36:13.862Z,25.73
2022-09-01T02:38:46.704Z,25.40
2022-09-01T02:41:21.755Z,29.08
2022-09-01T02:43:49.603Z,25.40
2022-09-01T02:46:17.511Z,22.50
2022-09-01T02:48:49.382Z,21.38
2022-09-01T02:51:19.540Z,25.45
2022-09-01T02:53:52.665Z,24.60
2022-09-01T02:56:24.997Z,24.63
2022-09-01T02:58:53.990Z,26.52
2022-09-01T03:01:24.807Z,22.40
2022-09-01T03:03:55.221Z,27.10
2022-09-01T03:06:24.222Z,24.50
2022-09-01T03:08:53.443Z,25.05
2022-09-01T03:11:23.755Z,26.75
2022-09-01T03:13:52.533Z,23.73
2022-09-01T03:16:20.474Z,24.88
2022-09-01T03:18:49.386Z,25.67
2022-09-01T03:21:17.663Z,25.73
2022-09-01T03:23:46.653Z,26.15
2022-09-01T03:26:18.593Z,25.35
2022-09-01T03:28:47.955Z,23.42
2022-09-01T03:31:16.871Z,26.17
2022-09-01T03:33:44.928Z,23.08
2022-09-01T03:36:19.241Z,25.05
2022-09-01T03:38:48.629Z,27.27
2022-09-01T03:41:18.487Z,23.77
2022-09-01T03:43:48.594Z,25.38
2022-09-01T03:46:21.495Z,23.85
2022-09-01T03:48:51.300Z,26.13
2022-09-01T03:51:20.948Z,24.30
2022-09-01T03:53:48.972Z,24.90
2022-09-01T03:56:16.847Z,26.85
2022-09-01T03:58:47.088Z,27.50
2022-09-01T04:01:17.053Z,25.88
2022-09-01T04:03:48.936Z,25.92
2022-09-01T04:06:21.098Z,25.75
2022-09-01T04:08:48.972Z,24.33
2022-09-01T04:11:23.521Z,24.65
2022-09-01T04:13:51.501Z,26.15
2022-09-01T04:16:40.815Z,23.58
2022-09-01T04:19:16.049Z,22.30
2022-09-01T04:21:44.849Z,26.70
2022-09-01T04:24:14.787Z,28.17
2022-09-01T04:26:46.459Z,25.08
2022-09-01T04:29:14.300Z,24.98
2022-09-01T04:31:43.498Z,25.10
2022-09-01T04:34:13.116Z,24.65
2022-09-01T04:36:43.554Z,24.23
2022-09-01T04:39:13.236Z,26.23
2022-09-01T04:41:46.230Z,23.83
2022-09-01T04:44:18.997Z,26.02
2022-09-01T04:46:50.772Z,23.52
2022-09-01T04:49:22.394Z,25.92
2022-09-01T04:51:54.207Z,25.92
2022-09-01T04:54:23.262Z,25.63
2022-09-01T04:56:52.711Z,26.13
2022-09-01T04:59:22.988Z,28.00
2022-09-01T05:01:55.558Z,24.38
2022-09-01T05:04:27.407Z,24.38
2022-09-01T05:06:59.614Z,27.27
2022-09-01T05:11:58.289Z,22.80
2022-09-01T05:14:26.794Z,24.98
2022-09-01T05:17:00.236Z,26.10
2022-09-01T05:19:30.933Z,27.20
2022-09-01T05:21:59.828Z,22.95
2022-09-01T05:24:30.422Z,23.92
2022-09-01T05:27:00.521Z,26.55
2022-09-01T05:29:29.673Z,22.58
2022-09-01T05:31:59.943Z,22.38
2022-09-01T05:34:29.654Z,22.58
2022-09-01T05:36:59.792Z,22.08
2022-09-01T05:39:28.613Z,28.20
2022-09-01T05:41:57.222Z,23.17
2022-09-01T05:44:25.442Z,22.65
2022-09-01T05:46:55.794Z,21.92
2022-09-01T05:49:26.768Z,22.23
2022-09-01T05:51:58.900Z,23.02
2022-09-01T05:54:29.079Z,22.30
2022-09-01T05:57:08.189Z,19.90
2022-09-01T05:59:53.747Z,23.63
2022-09-01T06:02:22.674Z,20.13
2022-09-01T06:04:55.633Z,20.38
2022-09-01T06:07:26.544Z,20.63
2022-09-01T06:09:54.517Z,20.13
2022-09-01T06:12:23.711Z,21.15
2022-09-01T06:14:54.399Z,18.33
2022-09-01T06:17:25.209Z,20.95
2022-09-01T06:19:56.057Z,20.15
2022-09-01T06:22:24.930Z,18.98
2022-09-01T06:24:58.043Z,18.88
2022-09-01T06:27:30.069Z,21.50
2022-09-01T06:29:58.615Z,18.02
2022-09-01T06:32:27.222Z,18.38
2022-09-01T06:34:58.228Z,16.17
2022-09-01T06:37:26.799Z,18.52
2022-09-01T06:39:54.959Z,15.65
2022-09-01T06:42:23.497Z,16.98
2022-09-01T06:44:52.631Z,18.23
2022-09-01T06:47:20.463Z,17.42
2022-09-01T06:49:48.308Z,15.88
2022-09-01T06:52:18.122Z,19.45
2022-09-01T06:54:45.975Z,19.85
2022-09-01T07:00:07.418Z,17.05
2022-09-01T07:02:35.307Z,17.63
2022-09-01T07:05:03.635Z,16.55
2022-09-01T07:10:23.131Z,14.85
2022-09-01T07:13:07.073Z,15.00
2022-09-01T07:18:26.012Z,16.13
2022-09-01T07:21:38.760Z,15.02
2022-09-01T07:26:35.587Z,15.07
2022-09-01T07:29:06.050Z,14.30
2022-09-01T07:32:43.997Z,21.17
2022-09-01T07:34:42.165Z,18.55
2022-09-01T07:38:04.325Z,17.00
2022-09-01T07:43:12.935Z,15.85
2022-09-01T07:45:58.036Z,16.17
2022-09-01T07:48:36.717Z,14.05
2022-09-01T07:51:36.108Z,15.25
2022-09-01T07:54:05.416Z,16.58
2022-09-01T07:56:39.813Z,16.75
2022-09-01T07:59:09.458Z,15.02
2022-09-01T08:01:43.776Z,13.43
2022-09-01T08:04:11.674Z,13.32
2022-09-01T08:06:39.523Z,15.63
2022-09-01T08:09:11.790Z,13.25
2022-09-01T08:14:33.753Z,13.30
2022-09-01T08:17:16.804Z,12.07
2022-09-01T08:19:46.951Z,12.02
2022-09-01T08:22:15.345Z,10.63
2022-09-01T08:24:43.344Z,13.27
2022-09-01T08:27:12.486Z,13.48
2022-09-01T08:29:41.852Z,12.15
2022-09-01T08:32:11.285Z,10.30
2022-09-01T08:34:39.709Z,12.45
2022-09-01T08:37:07.581Z,12.30
2022-09-01T08:39:35.461Z,10.65
2022-09-01T08:42:13.217Z,14.05
2022-09-01T08:44:52.385Z,11.98
2022-09-01T08:47:35.529Z,11.85
2022-09-01T08:50:09.033Z,10.52
2022-09-01T08:52:40.204Z,10.20
2022-09-01T08:57:41.961Z,9.73
2022-09-01T09:00:14.758Z,10.05
2022-09-01T09:02:54.567Z,12.63
2022-09-01T09:05:32.954Z,9.70
2022-09-01T09:08:18.005Z,9.38
2022-09-01T09:10:56.490Z,8.55
2022-09-01T09:13:31.871Z,12.65
2022-09-01T09:16:08.364Z,9.00
2022-09-01T09:18:54.860Z,8.57
2022-09-01T09:21:27.878Z,8.65
2022-09-01T09:24:01.354Z,8.10
2022-09-01T09:26:42.259Z,7.15
2022-09-01T09:29:10.275Z,7.80
2022-09-01T09:31:50.055Z,6.00
2022-09-01T09:34:29.920Z,6.82
2022-09-01T09:36:57.737Z,6.68
2022-09-01T09:39:25.571Z,5.80
2022-09-01T09:42:09.412Z,6.05
2022-09-01T09:44:44.143Z,7.00
2022-09-01T09:47:44.223Z,4.97
2022-09-01T09:50:25.503Z,5.15
2022-09-01T09:53:10.060Z,6.78
2022-09-01T09:55:38.181Z,4.95
2022-09-01T09:58:12.745Z,5.95
2022-09-01T10:00:41.092Z,7.07
2022-09-01T10:03:15.086Z,13.15
2022-09-01T10:05:45.088Z,7.68
2022-09-01T10:08:16.468Z,10.85
2022-09-01T10:10:57.288Z,6.85
2022-09-01T10:13:29.096Z,6.95
2022-09-01T10:16:05.541Z,7.78
2022-09-01T10:18:41.042Z,7.43
2022-09-01T10:21:14.413Z,5.68
2022-09-01T10:23:43.242Z,6.13
2022-09-01T10:26:16.714Z,5.55
2022-09-01T10:28:53.065Z,5.88
2022-09-01T10:31:22.541Z,4.75
2022-09-01T10:33:52.032Z,4.70
2022-09-01T10:36:24.371Z,4.22
2022-09-01T10:38:54.379Z,3.67
2022-09-01T10:41:53.252Z,6.70
2022-09-01T10:44:31.829Z,6.07
2022-09-01T10:50:01.490Z,4.13
2022-09-01T10:53:06.265Z,5.30
2022-09-01T10:55:41.289Z,3.78
2022-09-01T11:01:46.920Z,2.90
2022-09-01T11:04:07.377Z,3.55
2022-09-01T11:07:13.950Z,4.15
2022-09-01T11:09:43.749Z,3.22
2022-09-01T11:12:40.462Z,2.67
2022-09-01T11:15:36.298Z,3.22
2022-09-01T11:18:09.451Z,3.38
2022-09-01T11:20:39.517Z,3.42
2022-09-01T11:23:12.155Z,4.53
2022-09-01T11:25:43.815Z,2.63
2022-09-01T11:28:44.122Z,2.97
2022-09-01T11:31:30.752Z,3.75
2022-09-01T11:34:20.517Z,3.10
2022-09-01T11:37:00.164Z,5.18
2022-09-01T11:39:49.692Z,3.03
2022-09-01T11:42:22.625Z,3.70
2022-09-01T11:45:00.248Z,4.38
2022-09-01T11:47:33.181Z,4.00
2022-09-01T11:50:03.215Z,4.60
2022-09-01T11:52:35.841Z,4.20
2022-09-01T11:55:04.839Z,3.88
2022-09-01T11:57:36.759Z,4.65
2022-09-01T12:00:09.042Z,3.83
2022-09-01T12:02:43.483Z,3.90
2022-09-01T12:05:26.968Z,3.03
2022-09-01T12:07:55.242Z,3.45
2022-09-01T12:10:31.486Z,4.13
2022-09-01T12:13:04.978Z,3.85
2022-09-01T12:15:40.978Z,2.95
2022-09-01T12:18:19.253Z,3.78
2022-09-01T12:23:23.722Z,3.22
2022-09-01T12:25:52.465Z,4.32
2022-09-01T12:28:20.325Z,3.85
2022-09-01T12:30:49.962Z,3.88
2022-09-01T12:33:23.961Z,2.85
2022-09-01T12:35:56.068Z,4.70
2022-09-01T12:38:31.607Z,3.25
2022-09-01T12:41:00.010Z,2.90
2022-09-01T12:43:37.228Z,3.17
2022-09-01T12:46:10.863Z,3.55
2022-09-01T12:48:40.751Z,5.72
2022-09-01T12:51:18.950Z,2.08
2022-09-01T12:53:54.126Z,3.10
2022-09-01T12:56:29.772Z,3.38
2022-09-01T12:59:09.623Z,2.30
2022-09-01T13:01:43.699Z,3.17
2022-09-01T13:04:25.764Z,2.75
2022-09-01T13:06:54.918Z,3.65
2022-09-01T13:09:23.067Z,3.53
2022-09-01T13:12:07.687Z,4.22
2022-09-01T13:14:35.881Z,3.25
2022-09-01T13:17:05.417Z,2.90
2022-09-01T13:19:42.109Z,2.65
2022-09-01T13:22:10.107Z,3.42
2022-09-01T13:24:39.678Z,2.47
2022-09-01T13:27:23.575Z,3.47
2022-09-01T13:29:51.964Z,2.40
2022-09-01T13:32:22.805Z,2.40
2022-09-01T13:34:53.133Z,2.30
2022-09-01T13:37:22.702Z,2.30
2022-09-01T13:39:50.692Z,2.55
2022-09-01T13:42:19.274Z,4.78
2022-09-01T13:44:49.621Z,3.95
2022-09-01T13:47:29.754Z,3.00
2022-09-01T13:50:11.153Z,2.40
2022-09-01T13:52:40.330Z,4.47
2022-09-01T13:55:11.071Z,3.58
2022-09-01T13:57:39.044Z,2.17
2022-09-01T14:00:10.666Z,2.58
2022-09-01T14:02:40.654Z,2.85
2022-09-01T14:05:09.574Z,2.13
2022-09-01T14:07:37.479Z,2.58
2022-09-01T14:10:07.604Z,2.08
2022-09-01T14:12:35.561Z,3.40
2022-09-01T14:15:13.705Z,2.25
2022-09-01T14:17:46.556Z,1.60
2022-09-01T14:20:20.958Z,4.60
2022-09-01T14:22:50.537Z,2.13
2022-09-01T14:25:20.600Z,1.52
2022-09-01T14:27:49.660Z,3.13
2022-09-01T14:30:19.921Z,2.05
2022-09-01T14:32:49.552Z,2.95
2022-09-01T14:35:19.092Z,1.95
2022-09-01T14:37:46.955Z,1.52
2022-09-01T14:40:18.190Z,1.98
2022-09-01T14:45:18.410Z,1.27
2022-09-01T14:47:46.445Z,2.63
2022-09-01T14:50:21.628Z,2.13
2022-09-01T14:52:52.834Z,1.58
2022-09-01T14:55:21.067Z,6.75
2022-09-01T14:57:49.016Z,1.33
2022-09-01T15:00:17.426Z,4.18
2022-09-01T15:02:45.580Z,2.88
2022-09-01T15:05:15.888Z,1.73
2022-09-01T15:07:44.370Z,1.30
2022-09-01T15:10:15.948Z,1.50
2022-09-01T15:12:51.383Z,1.73
2022-09-01T15:15:19.856Z,2.13
2022-09-01T15:17:47.742Z,2.08
2022-09-01T15:20:34.612Z,2.67
2022-09-01T15:23:02.516Z,1.42
2022-09-01T15:25:30.431Z,3.47
2022-09-01T15:27:58.330Z,2.05
2022-09-01T15:30:26.298Z,2.05
2022-09-01T15:32:55.055Z,1.25
2022-09-01T15:35:25.007Z,2.47
2022-09-01T15:37:53.766Z,1.98
2022-09-01T15:40:21.837Z,2.15
2022-09-01T15:42:49.940Z,4.25
2022-09-01T15:45:20.950Z,2.53
2022-09-01T15:47:49.297Z,1.35
2022-09-01T15:50:21.378Z,1.55
2022-09-01T15:52:53.488Z,2.72
2022-09-01T15:55:23.672Z,2.53
2022-09-01T15:57:52.497Z,1.30
2022-09-01T16:00:20.770Z,1.85
2022-09-01T16:02:48.607Z,1.45
2022-09-01T16:05:17.805Z,4.40
2022-09-01T16:07:45.723Z,2.25
2022-09-01T16:10:15.003Z,3.95
2022-09-01T16:12:44.598Z,4.38
2022-09-01T16:15:14.608Z,2.75
2022-09-01T16:18:06.959Z,2.72
2022-09-01T16:20:38.365Z,2.17
2022-09-01T16:23:14.988Z,3.42
2022-09-01T16:25:49.071Z,1.30
2022-09-01T16:28:27.535Z,1.45
2022-09-01T16:31:00.491Z,1.58
2022-09-01T16:33:28.427Z,3.85
2022-09-01T16:36:17.147Z,4.40
2022-09-01T16:38:49.401Z,1.48
2022-09-01T16:41:39.642Z,2.92
2022-09-01T16:44:18.763Z,1.35
2022-09-01T16:46:57.011Z,1.60
2022-09-01T16:49:33.997Z,3.58
2022-09-01T16:52:07.965Z,1.27
2022-09-01T16:54:49.297Z,2.20
2022-09-01T16:57:26.174Z,3.58
2022-09-01T16:59:56.592Z,2.67
2022-09-01T17:02:38.386Z,1.90
2022-09-01T17:05:16.809Z,2.53
2022-09-01T17:07:52.053Z,2.45
2022-09-01T17:10:33.393Z,2.80
2022-09-01T17:13:17.218Z,5.18
2022-09-01T17:15:51.718Z,1.80
2022-09-01T17:18:25.836Z,1.60
2022-09-01T17:20:58.091Z,1.50
2022-09-01T17:23:29.670Z,2.65
2022-09-01T17:26:03.015Z,2.75
2022-09-01T17:28:36.332Z,3.20
2022-09-01T17:31:14.529Z,2.05
2022-09-01T17:33:56.276Z,5.10
2022-09-01T17:36:34.847Z,2.22
2022-09-01T17:39:14.194Z,1.60
2022-09-01T17:41:48.465Z,2.05
2022-09-01T17:44:26.490Z,1.55
2022-09-01T17:47:07.145Z,4.25
2022-09-01T17:49:44.578Z,1.60
2022-09-01T17:52:21.561Z,1.58
2022-09-01T17:54:58.909Z,1.98
2022-09-01T17:57:33.156Z,5.40
2022-09-01T18:00:07.640Z,3.10
2022-09-01T18:03:04.680Z,5.60
2022-09-01T18:05:40.116Z,2.55
2022-09-01T18:08:39.109Z,1.95
2022-09-01T18:11:11.395Z,2.08
2022-09-01T18:13:53.565Z,3.28
2022-09-01T18:16:27.874Z,2.08
2022-09-01T18:19:00.560Z,1.70
2022-09-01T18:21:33.501Z,2.92
2022-09-01T18:24:12.277Z,1.52
2022-09-01T18:26:42.437Z,2.65
2022-09-01T18:29:10.687Z,3.42
2022-09-01T18:32:06.359Z,1.65
2022-09-01T18:34:49.216Z,3.05
2022-09-01T18:37:26.867Z,2.38
2022-09-01T18:40:01.821Z,1.70
2022-09-01T18:42:36.393Z,3.47
2022-09-01T18:45:12.034Z,5.40
2022-09-01T18:47:49.119Z,2.92
2022-09-01T18:50:23.882Z,2.28
2022-09-01T18:53:14.910Z,1.90
2022-09-01T18:55:49.139Z,1.92
2022-09-01T18:58:30.825Z,3.25
2022-09-01T19:01:06.431Z,2.00
2022-09-01T19:03:42.920Z,3.97
2022-09-01T19:06:27.226Z,3.28
2022-09-01T19:09:16.656Z,1.73
2022-09-01T19:11:56.449Z,2.55
2022-09-01T19:14:33.981Z,2.00
2022-09-01T19:17:31.702Z,2.55
2022-09-01T19:20:04.141Z,2.97
2022-09-01T19:22:40.050Z,1.80
2022-09-01T19:25:28.497Z,3.10
2022-09-01T19:28:01.699Z,2.13
2022-09-01T19:30:29.766Z,3.25
2022-09-01T19:33:00.062Z,2.40
2022-09-01T19:35:34.236Z,2.03
2022-09-01T19:38:03.894Z,2.22
2022-09-01T19:43:13.505Z,3.17
2022-09-01T19:45:55.995Z,2.10
2022-09-01T19:48:28.826Z,3.95
2022-09-01T19:51:03.708Z,2.47
2022-09-01T19:53:41.233Z,2.60
2022-09-01T19:56:14.014Z,3.83
2022-09-01T19:58:48.923Z,3.72
2022-09-01T20:01:21.885Z,3.42
2022-09-01T20:03:54.959Z,1.92
2022-09-01T20:06:33.379Z,2.47
2022-09-01T20:09:08.453Z,3.53
2022-09-01T20:11:46.784Z,2.15
2022-09-01T20:14:35.930Z,2.67
2022-09-01T20:17:06.166Z,2.05
2022-09-01T20:19:42.077Z,3.63
2022-09-01T20:22:24.586Z,1.80
2022-09-01T20:25:08.411Z,2.05
2022-09-01T20:27:43.556Z,2.40
2022-09-01T20:30:13.856Z,2.88
2022-09-01T20:35:24.408Z,2.88
2022-09-01T20:38:00.381Z,1.90
2022-09-01T20:40:32.572Z,1.73
2022-09-01T20:45:36.220Z,2.67
2022-09-01T20:48:07.528Z,2.50
2022-09-01T20:50:43.165Z,2.50
2022-09-01T20:53:36.303Z,2.88
2022-09-01T20:56:09.011Z,4.38
2022-09-01T20:58:41.135Z,2.28
2022-09-01T21:04:02.933Z,2.67
2022-09-01T21:06:45.745Z,2.72
2022-09-01T21:09:20.392Z,2.10
2022-09-01T21:11:55.618Z,2.30
2022-09-01T21:14:35.380Z,2.25
2022-09-01T21:17:10.698Z,3.22
2022-09-01T21:19:48.782Z,3.90
2022-09-01T21:22:21.918Z,2.42
2022-09-01T21:24:51.932Z,2.20
2022-09-01T21:27:22.642Z,2.30
2022-09-01T21:29:56.411Z,2.38
2022-09-01T21:32:24.406Z,5.00
2022-09-01T21:34:53.103Z,2.53
2022-09-01T21:37:23.602Z,2.55
2022-09-01T21:39:54.054Z,2.30
2022-09-01T21:42:25.102Z,3.25
2022-09-01T21:44:54.292Z,2.97
2022-09-01T21:47:22.923Z,2.33
2022-09-01T21:49:50.832Z,3.78
2022-09-01T21:52:18.836Z,3.65
2022-09-01T21:54:46.860Z,4.40
2022-09-01T21:57:16.234Z,2.30
2022-09-01T21:59:44.076Z,3.67
2022-09-01T22:02:11.924Z,2.20
2022-09-01T22:04:40.123Z,3.17
2022-09-01T22:07:18.561Z,2.30
2022-09-01T22:09:46.975Z,3.13
2022-09-01T22:12:16.121Z,2.78
2022-09-01T22:14:43.941Z,2.42
2022-09-01T22:17:11.777Z,2.75
2022-09-01T22:19:39.702Z,2.65
2022-09-01T22:22:08.593Z,4.97
2022-09-01T22:24:37.648Z,3.50
2022-09-01T22:27:05.588Z,4.45
2022-09-01T22:29:34.755Z,3.88
2022-09-01T22:32:02.768Z,3.03
2022-09-01T22:34:33.064Z,3.17
2022-09-01T22:37:01.114Z,2.53
2022-09-01T22:39:29.092Z,2.70
2022-09-01T22:41:56.961Z,6.20
2022-09-01T22:44:24.819Z,2.83
2022-09-01T22:46:53.981Z,3.70
2022-09-01T22:49:21.836Z,3.35
2022-09-01T22:51:50.213Z,2.47
2022-09-01T22:54:18.230Z,2.83
2022-09-01T22:56:46.197Z,2.53
2022-09-01T22:59:15.744Z,2.60
2022-09-01T23:01:45.826Z,4.70
2022-09-01T23:04:17.233Z,3.85
2022-09-01T23:06:49.450Z,2.83
2022-09-01T23:11:45.776Z,3.85
2022-09-01T23:14:13.768Z,2.75
2022-09-01T23:16:42.102Z,3.53
2022-09-01T23:19:09.957Z,4.85
2022-09-01T23:21:39.961Z,3.45
2022-09-01T23:24:08.121Z,3.53
2022-09-01T23:26:36.553Z,6.18
2022-09-01T23:29:05.432Z,4.03
2022-09-01T23:31:35.872Z,4.85
2022-09-01T23:34:04.706Z,3.50
2022-09-01T23:36:32.554Z,3.10
2022-09-01T23:39:02.305Z,4.03
2022-09-01T23:41:32.708Z,3.53
2022-09-01T23:44:03.415Z,2.70
2022-09-01T23:46:34.041Z,6.70
2022-09-01T23:49:02.571Z,3.17
2022-09-01T23:51:30.975Z,4.03
2022-09-01T23:53:59.107Z,3.08
2022-09-01T23:56:30.375Z,6.22
2022-09-01T23:58:58.911Z,3.47
